Terminal Aerodrome Forecast
Issued by NWS

Home | Current Version | Previous Version | Text Only | Print | Product List | Glossary Off
Versions: 1 2 3 4 5 6 7 8 9 10 11 12 13 14 15 16 17 18 19 20 21 22 23 24 25 26 27 28 29 30 31 32

000
FTUS45 KGGW 291900 AAA
TAFOLF
TAF AMD
KOLF 291907Z 2919/3018 11012KT P6SM -SHRA BKN010
      TEMPO 2919/2923 10010KT 2SM -SHRA OVC015
     FM300100 12006KT P6SM OVC050
     FM300500 10008KT P6SM -SHRA OVC025
      TEMPO 3007/3011 6SM -SHRA OVC007=

USA.gov is the U.S. government's official web portal to all federal, state and local government web resources and services.